createdAt,value
2023-03-26T00:04:25.572Z,8.03
2023-03-26T00:09:29.810Z,8.15
2023-03-26T00:14:32.674Z,8.15
2023-03-26T00:19:34.933Z,8.26
2023-03-26T00:24:37.590Z,8.32
2023-03-26T00:29:40.010Z,8.45
2023-03-26T00:34:42.499Z,8.49
2023-03-26T00:39:44.615Z,8.52
2023-03-26T00:44:46.911Z,8.49
2023-03-26T00:49:48.847Z,8.35
2023-03-26T00:54:52.140Z,8.29
2023-03-26T00:59:53.830Z,8.23
2023-03-26T01:04:58.618Z,8.19
2023-03-26T01:10:00.830Z,8.20
2023-03-26T01:15:04.520Z,8.24
2023-03-26T01:20:12.772Z,8.24
2023-03-26T01:25:14.601Z,8.24
2023-03-26T01:30:17.103Z,8.21
2023-03-26T01:35:32.661Z,8.21
2023-03-26T01:41:14.118Z,8.20
2023-03-26T01:46:16.580Z,8.18
2023-03-26T01:51:30.304Z,8.12
2023-03-26T01:56:40.886Z,8.03
2023-03-26T02:01:54.942Z,7.90
2023-03-26T02:07:05.871Z,7.77
2023-03-26T02:12:08.526Z,7.68
2023-03-26T02:17:10.913Z,7.60
2023-03-26T02:22:15.633Z,7.63
2023-03-26T02:27:18.965Z,7.64
2023-03-26T02:32:21.241Z,7.63
2023-03-26T02:37:22.958Z,7.66
2023-03-26T02:42:31.503Z,7.61
2023-03-26T02:47:33.859Z,7.58
2023-03-26T02:52:58.779Z,7.49
2023-03-26T02:58:01.913Z,7.44
2023-03-26T03:03:09.781Z,7.49
2023-03-26T03:08:30.115Z,7.51
2023-03-26T03:13:54.826Z,7.55
2023-03-26T03:18:59.648Z,7.57
2023-03-26T03:24:11.624Z,7.38
2023-03-26T03:29:19.685Z,7.30
2023-03-26T03:34:22.297Z,7.28
2023-03-26T03:39:26.157Z,7.24
2023-03-26T03:44:28.813Z,7.22
2023-03-26T03:49:30.784Z,7.27
2023-03-26T03:54:33.700Z,7.31
2023-03-26T04:00:11.689Z,7.43
2023-03-26T04:05:25.263Z,7.33
2023-03-26T04:10:27.442Z,7.26
2023-03-26T04:15:49.230Z,7.27
2023-03-26T04:20:50.955Z,7.30
2023-03-26T04:26:04.219Z,7.36
2023-03-26T04:31:29.464Z,7.46
2023-03-26T04:36:34.324Z,7.54
2023-03-26T04:41:36.348Z,7.66
2023-03-26T04:46:43.699Z,7.73
2023-03-26T04:51:52.844Z,7.72
2023-03-26T04:57:21.268Z,7.70
2023-03-26T05:02:32.543Z,7.70
2023-03-26T05:07:34.463Z,7.72
2023-03-26T05:12:36.294Z,7.75
2023-03-26T05:17:43.017Z,7.82
2023-03-26T05:22:53.370Z,7.78
2023-03-26T05:28:02.612Z,7.63
2023-03-26T05:33:14.333Z,7.51
2023-03-26T05:38:25.536Z,7.45
2023-03-26T05:43:28.619Z,7.36
2023-03-26T05:48:46.645Z,7.39
2023-03-26T05:53:48.357Z,7.37
2023-03-26T05:59:18.930Z,7.41
2023-03-26T06:04:46.732Z,7.46
2023-03-26T06:10:03.912Z,7.68
2023-03-26T06:15:06.582Z,7.85
2023-03-26T06:20:37.665Z,8.02
2023-03-26T06:25:49.912Z,8.20
2023-03-26T06:31:03.893Z,8.31
2023-03-26T06:36:15.014Z,8.34
2023-03-26T06:41:17.104Z,8.43
2023-03-26T06:46:39.071Z,8.51
2023-03-26T06:52:09.527Z,8.67
2023-03-26T06:57:14.059Z,8.72
2023-03-26T07:02:35.745Z,8.85
2023-03-26T07:07:57.967Z,8.77
2023-03-26T07:13:17.904Z,8.79
2023-03-26T07:18:55.359Z,8.80
2023-03-26T07:24:00.917Z,8.87
2023-03-26T07:29:45.642Z,8.97
2023-03-26T07:35:10.448Z,9.09
2023-03-26T07:40:59.464Z,9.19
2023-03-26T07:46:27.569Z,9.29
2023-03-26T07:51:48.921Z,9.30
2023-03-26T07:57:07.043Z,9.40
2023-03-26T08:02:49.844Z,9.44
2023-03-26T08:08:33.626Z,9.42
2023-03-26T08:14:17.394Z,9.35
2023-03-26T08:19:43.481Z,9.36
2023-03-26T08:25:19.040Z,9.34
2023-03-26T08:30:23.274Z,9.29
2023-03-26T08:35:26.339Z,9.27
2023-03-26T08:40:52.893Z,9.29
2023-03-26T08:46:03.906Z,9.31
2023-03-26T08:51:40.836Z,9.25
2023-03-26T08:56:48.073Z,9.31
2023-03-26T09:02:20.771Z,9.40
2023-03-26T09:07:49.830Z,9.52
2023-03-26T09:13:00.417Z,9.56
2023-03-26T09:18:16.885Z,9.67
2023-03-26T09:23:30.539Z,9.90
2023-03-26T09:28:53.925Z,9.92
2023-03-26T09:34:20.278Z,9.97
2023-03-26T09:39:43.805Z,10.19
2023-03-26T09:45:02.222Z,10.46
2023-03-26T09:50:41.012Z,10.72
2023-03-26T09:55:51.073Z,10.91
2023-03-26T10:01:15.843Z,11.14
2023-03-26T10:06:22.834Z,11.25
2023-03-26T10:11:35.453Z,11.43
2023-03-26T10:16:50.675Z,11.53
2023-03-26T10:21:59.617Z,11.48
2023-03-26T10:27:08.456Z,11.47
2023-03-26T10:32:37.956Z,11.38
2023-03-26T10:38:06.292Z,11.68
2023-03-26T10:43:20.746Z,11.99
2023-03-26T10:48:27.112Z,12.11
2023-03-26T10:53:32.271Z,12.69
2023-03-26T10:58:48.382Z,13.27
2023-03-26T11:03:54.311Z,12.96
2023-03-26T11:09:03.043Z,13.36
2023-03-26T11:14:42.447Z,13.67
2023-03-26T11:20:16.083Z,13.20
2023-03-26T11:25:35.862Z,13.41
2023-03-26T11:30:44.921Z,12.98
2023-03-26T11:35:49.608Z,12.58
2023-03-26T11:40:55.320Z,12.62
2023-03-26T11:46:19.198Z,12.49
2023-03-26T11:51:36.783Z,12.56
2023-03-26T11:57:06.021Z,12.52
2023-03-26T12:02:11.672Z,12.48
2023-03-26T12:07:34.248Z,12.38
2023-03-26T12:12:41.418Z,12.26
2023-03-26T12:17:43.392Z,12.29
2023-03-26T12:22:47.932Z,12.40
2023-03-26T12:28:04.860Z,12.63
2023-03-26T12:33:16.321Z,12.75
2023-03-26T12:38:33.328Z,12.87
2023-03-26T12:44:53.000Z,13.02
2023-03-26T12:49:14.210Z,13.27
2023-03-26T12:54:28.891Z,13.23
2023-03-26T12:59:45.643Z,13.15
2023-03-26T13:05:13.261Z,12.99
2023-03-26T13:10:33.789Z,12.84
2023-03-26T13:15:47.580Z,12.79
2023-03-26T13:21:02.819Z,12.57
2023-03-26T13:26:35.160Z,12.82
2023-03-26T13:31:38.054Z,12.88
2023-03-26T13:37:04.984Z,12.71
2023-03-26T13:42:12.860Z,12.64
2023-03-26T13:47:18.224Z,12.81
2023-03-26T13:52:26.998Z,12.72
2023-03-26T13:57:33.336Z,12.63
2023-03-26T14:02:38.153Z,12.49
2023-03-26T14:08:04.286Z,11.80
2023-03-26T14:13:24.351Z,11.29
2023-03-26T14:18:41.677Z,10.97
2023-03-26T14:23:58.600Z,10.82
2023-03-26T14:29:12.350Z,10.40
2023-03-26T14:34:42.687Z,9.99
2023-03-26T14:40:15.132Z,9.80
2023-03-26T14:45:32.095Z,9.77
2023-03-26T14:50:54.683Z,9.70
2023-03-26T14:56:24.126Z,9.61
2023-03-26T15:01:57.971Z,9.69
2023-03-26T15:07:45.853Z,9.56
2023-03-26T15:12:54.588Z,9.27
2023-03-26T15:18:10.257Z,8.94
2023-03-26T15:23:49.070Z,8.74
2023-03-26T15:29:09.980Z,8.59
2023-03-26T15:34:25.703Z,8.46
2023-03-26T15:39:27.739Z,8.23
2023-03-26T15:44:50.937Z,8.03
2023-03-26T15:50:20.317Z,7.91
2023-03-26T15:55:41.371Z,7.83
2023-03-26T16:01:21.429Z,7.80
2023-03-26T16:06:57.495Z,7.76
2023-03-26T16:12:03.985Z,7.70
2023-03-26T16:17:06.543Z,7.65
2023-03-26T16:22:14.583Z,7.55
2023-03-26T16:27:16.218Z,7.48
2023-03-26T16:32:29.836Z,7.39
2023-03-26T16:37:31.909Z,7.36
2023-03-26T16:42:42.210Z,7.31
2023-03-26T16:48:21.027Z,7.28
2023-03-26T16:53:46.661Z,7.28
2023-03-26T16:58:58.651Z,7.26
2023-03-26T17:04:25.776Z,7.24
2023-03-26T17:09:37.961Z,7.27
2023-03-26T17:14:48.950Z,7.28
2023-03-26T17:20:47.515Z,7.27
2023-03-26T17:26:07.171Z,7.22
2023-03-26T17:31:58.061Z,7.26
2023-03-26T17:37:01.152Z,7.25
2023-03-26T17:42:25.682Z,7.24
2023-03-26T17:47:35.707Z,7.19
2023-03-26T17:52:48.967Z,7.14
2023-03-26T17:57:53.769Z,7.12
2023-03-26T18:02:58.144Z,7.06
2023-03-26T18:08:37.433Z,7.06
2023-03-26T18:14:09.814Z,7.08
2023-03-26T18:19:19.300Z,6.99
2023-03-26T18:24:22.573Z,6.91
2023-03-26T18:29:32.558Z,6.90
2023-03-26T18:34:36.540Z,6.85
2023-03-26T18:39:38.444Z,6.85
2023-03-26T18:44:41.125Z,6.82
2023-03-26T18:49:45.592Z,6.83
2023-03-26T18:54:49.452Z,6.82
2023-03-26T18:59:52.641Z,6.79
2023-03-26T19:04:54.508Z,6.81
2023-03-26T19:09:56.767Z,6.80
2023-03-26T19:15:07.807Z,6.73
2023-03-26T19:20:19.489Z,6.72
2023-03-26T19:25:24.056Z,6.74
2023-03-26T19:30:34.293Z,6.76
2023-03-26T19:35:37.770Z,6.77
2023-03-26T19:40:42.230Z,6.77
2023-03-26T19:45:59.283Z,6.80
2023-03-26T19:51:05.409Z,6.84
2023-03-26T19:56:15.980Z,6.83
2023-03-26T20:01:23.699Z,6.83
2023-03-26T20:11:52.534Z,6.83
2023-03-26T20:16:54.353Z,6.85
2023-03-26T20:21:56.433Z,6.82
2023-03-26T20:26:58.086Z,6.80
2023-03-26T20:31:59.737Z,6.81
2023-03-26T20:37:02.063Z,6.77
2023-03-26T20:42:03.757Z,6.77
2023-03-26T20:47:05.427Z,6.76
2023-03-26T20:52:07.072Z,6.75
2023-03-26T20:57:11.816Z,6.72
2023-03-26T21:02:13.863Z,6.68
2023-03-26T21:07:18.443Z,6.65
2023-03-26T21:12:20.565Z,6.63
2023-03-26T21:17:23.176Z,6.63
2023-03-26T21:22:32.048Z,6.55
2023-03-26T21:27:50.321Z,6.53
2023-03-26T21:32:52.146Z,6.51
2023-03-26T21:37:54.614Z,6.49
2023-03-26T21:42:56.684Z,6.50
2023-03-26T21:47:58.544Z,6.51
2023-03-26T21:53:00.598Z,6.53
2023-03-26T21:58:29.235Z,6.56
2023-03-26T22:03:43.111Z,6.59
2023-03-26T22:08:45.132Z,6.53
2023-03-26T22:13:46.780Z,6.49
2023-03-26T22:18:48.385Z,6.48
2023-03-26T22:23:53.961Z,6.46
2023-03-26T22:28:55.659Z,6.40
2023-03-26T22:33:57.319Z,6.34
2023-03-26T22:38:58.971Z,6.30
2023-03-26T22:44:09.275Z,6.28
2023-03-26T22:49:14.967Z,6.24
2023-03-26T22:54:16.828Z,6.17
2023-03-26T22:59:18.686Z,6.13
2023-03-26T23:04:30.678Z,6.11
2023-03-26T23:09:32.742Z,6.13
2023-03-26T23:14:34.401Z,6.07
2023-03-26T23:19:37.055Z,6.11
2023-03-26T23:24:39.418Z,6.07
2023-03-26T23:29:42.236Z,6.09
2023-03-26T23:34:52.051Z,6.08
2023-03-26T23:39:54.129Z,6.12
2023-03-26T23:44:56.914Z,6.14
2023-03-26T23:49:58.679Z,6.15
2023-03-26T23:55:01.214Z,6.14
